sensor_id;sensor_type;location;lat;lon;timestamp;P1;durP1;ratioP1;P2;durP2;ratioP2
5379;SDS011;2713;42.680;23.310;2022-11-15T00:00:19;45.77;;;30.23;;
5379;SDS011;2713;42.680;23.310;2022-11-15T00:03:04;51.83;;;30.70;;
5379;SDS011;2713;42.680;23.310;2022-11-15T00:05:50;50.20;;;31.30;;
5379;SDS011;2713;42.680;23.310;2022-11-15T00:08:37;49.30;;;31.47;;
5379;SDS011;2713;42.680;23.310;2022-11-15T00:11:22;47.47;;;30.20;;
5379;SDS011;2713;42.680;23.310;2022-11-15T00:14:08;50.90;;;32.27;;
5379;SDS011;2713;42.680;23.310;2022-11-15T00:16:53;47.33;;;30.70;;
5379;SDS011;2713;42.680;23.310;2022-11-15T00:19:39;49.77;;;31.33;;
5379;SDS011;2713;42.680;23.310;2022-11-15T00:22:24;49.17;;;30.10;;
5379;SDS011;2713;42.680;23.310;2022-11-15T00:25:11;51.70;;;30.43;;
5379;SDS011;2713;42.680;23.310;2022-11-15T00:27:56;46.80;;;29.70;;
5379;SDS011;2713;42.680;23.310;2022-11-15T00:30:42;47.37;;;32.70;;
5379;SDS011;2713;42.680;23.310;2022-11-15T00:33:27;47.40;;;31.23;;
5379;SDS011;2713;42.680;23.310;2022-11-15T00:36:12;48.70;;;31.47;;
5379;SDS011;2713;42.680;23.310;2022-11-15T00:38:57;52.13;;;33.00;;
5379;SDS011;2713;42.680;23.310;2022-11-15T00:41:44;51.27;;;30.60;;
5379;SDS011;2713;42.680;23.310;2022-11-15T00:44:29;46.83;;;30.57;;
5379;SDS011;2713;42.680;23.310;2022-11-15T00:47:15;47.47;;;29.43;;
5379;SDS011;2713;42.680;23.310;2022-11-15T00:50:00;45.23;;;29.00;;
5379;SDS011;2713;42.680;23.310;2022-11-15T00:52:45;45.57;;;28.33;;
5379;SDS011;2713;42.680;23.310;2022-11-15T00:55:31;46.73;;;29.40;;
5379;SDS011;2713;42.680;23.310;2022-11-15T00:58:18;48.03;;;28.97;;
5379;SDS011;2713;42.680;23.310;2022-11-15T01:01:07;46.70;;;30.20;;
5379;SDS011;2713;42.680;23.310;2022-11-15T01:03:53;45.67;;;27.97;;
5379;SDS011;2713;42.680;23.310;2022-11-15T01:06:39;49.70;;;28.13;;
5379;SDS011;2713;42.680;23.310;2022-11-15T01:09:24;52.53;;;29.20;;
5379;SDS011;2713;42.680;23.310;2022-11-15T01:12:09;47.17;;;29.40;;
5379;SDS011;2713;42.680;23.310;2022-11-15T01:14:56;42.97;;;27.13;;
5379;SDS011;2713;42.680;23.310;2022-11-15T01:17:41;42.53;;;28.23;;
5379;SDS011;2713;42.680;23.310;2022-11-15T01:20:27;40.37;;;27.47;;
5379;SDS011;2713;42.680;23.310;2022-11-15T01:23:12;40.00;;;27.30;;
5379;SDS011;2713;42.680;23.310;2022-11-15T01:25:58;42.03;;;27.10;;
5379;SDS011;2713;42.680;23.310;2022-11-15T01:28:43;45.27;;;27.03;;
5379;SDS011;2713;42.680;23.310;2022-11-15T01:31:30;44.50;;;26.70;;
5379;SDS011;2713;42.680;23.310;2022-11-15T01:34:16;42.67;;;26.47;;
5379;SDS011;2713;42.680;23.310;2022-11-15T01:37:01;44.80;;;26.50;;
5379;SDS011;2713;42.680;23.310;2022-11-15T01:39:47;44.03;;;26.57;;
5379;SDS011;2713;42.680;23.310;2022-11-15T01:42:32;43.63;;;26.47;;
5379;SDS011;2713;42.680;23.310;2022-11-15T01:45:17;42.90;;;25.80;;
5379;SDS011;2713;42.680;23.310;2022-11-15T01:48:07;40.60;;;25.70;;
5379;SDS011;2713;42.680;23.310;2022-11-15T01:50:55;41.70;;;26.70;;
5379;SDS011;2713;42.680;23.310;2022-11-15T01:53:41;42.77;;;25.93;;
5379;SDS011;2713;42.680;23.310;2022-11-15T01:56:30;42.60;;;26.50;;
5379;SDS011;2713;42.680;23.310;2022-11-15T01:59:20;45.47;;;27.10;;
5379;SDS011;2713;42.680;23.310;2022-11-15T02:02:07;44.57;;;27.87;;
5379;SDS011;2713;42.680;23.310;2022-11-15T02:04:54;42.50;;;25.50;;
5379;SDS011;2713;42.680;23.310;2022-11-15T02:07:39;39.80;;;25.00;;
5379;SDS011;2713;42.680;23.310;2022-11-15T02:10:25;37.77;;;23.50;;
5379;SDS011;2713;42.680;23.310;2022-11-15T02:13:10;40.30;;;25.90;;
5379;SDS011;2713;42.680;23.310;2022-11-15T02:15:58;42.47;;;27.70;;
5379;SDS011;2713;42.680;23.310;2022-11-15T02:18:50;50.63;;;27.07;;
5379;SDS011;2713;42.680;23.310;2022-11-15T02:21:42;44.80;;;26.50;;
5379;SDS011;2713;42.680;23.310;2022-11-15T02:24:37;41.63;;;26.77;;
5379;SDS011;2713;42.680;23.310;2022-11-15T02:31:00;41.67;;;26.70;;
5379;SDS011;2713;42.680;23.310;2022-11-15T02:33:59;45.33;;;27.13;;
5379;SDS011;2713;42.680;23.310;2022-11-15T02:36:54;46.97;;;29.93;;
5379;SDS011;2713;42.680;23.310;2022-11-15T02:39:46;45.20;;;29.00;;
5379;SDS011;2713;42.680;23.310;2022-11-15T02:42:36;51.00;;;32.30;;
5379;SDS011;2713;42.680;23.310;2022-11-15T02:45:46;54.80;;;33.70;;
5379;SDS011;2713;42.680;23.310;2022-11-15T02:48:37;59.07;;;36.30;;
5379;SDS011;2713;42.680;23.310;2022-11-15T02:51:23;65.13;;;37.57;;
5379;SDS011;2713;42.680;23.310;2022-11-15T02:54:10;64.00;;;38.57;;
5379;SDS011;2713;42.680;23.310;2022-11-15T02:57:01;65.40;;;40.97;;
5379;SDS011;2713;42.680;23.310;2022-11-15T02:59:51;70.10;;;40.53;;
5379;SDS011;2713;42.680;23.310;2022-11-15T03:02:57;69.00;;;40.70;;
5379;SDS011;2713;42.680;23.310;2022-11-15T03:05:56;63.83;;;40.17;;
5379;SDS011;2713;42.680;23.310;2022-11-15T03:08:52;65.93;;;40.47;;
5379;SDS011;2713;42.680;23.310;2022-11-15T03:11:44;69.30;;;41.53;;
5379;SDS011;2713;42.680;23.310;2022-11-15T03:14:34;67.13;;;40.43;;
5379;SDS011;2713;42.680;23.310;2022-11-15T03:17:25;72.00;;;40.90;;
5379;SDS011;2713;42.680;23.310;2022-11-15T03:20:13;63.20;;;37.87;;
5379;SDS011;2713;42.680;23.310;2022-11-15T03:23:03;65.53;;;40.00;;
5379;SDS011;2713;42.680;23.310;2022-11-15T03:25:51;64.10;;;39.83;;
5379;SDS011;2713;42.680;23.310;2022-11-15T03:28:41;69.40;;;40.50;;
5379;SDS011;2713;42.680;23.310;2022-11-15T03:31:32;72.23;;;39.20;;
5379;SDS011;2713;42.680;23.310;2022-11-15T03:34:34;63.40;;;39.80;;
5379;SDS011;2713;42.680;23.310;2022-11-15T03:37:24;61.80;;;37.50;;
5379;SDS011;2713;42.680;23.310;2022-11-15T03:40:17;68.80;;;39.17;;
5379;SDS011;2713;42.680;23.310;2022-11-15T03:43:10;66.33;;;37.77;;
5379;SDS011;2713;42.680;23.310;2022-11-15T03:46:02;74.20;;;39.87;;
5379;SDS011;2713;42.680;23.310;2022-11-15T03:48:53;69.97;;;38.30;;
5379;SDS011;2713;42.680;23.310;2022-11-15T03:51:44;76.73;;;38.60;;
5379;SDS011;2713;42.680;23.310;2022-11-15T03:54:29;75.67;;;39.40;;
5379;SDS011;2713;42.680;23.310;2022-11-15T03:57:16;79.33;;;38.03;;
5379;SDS011;2713;42.680;23.310;2022-11-15T04:00:02;72.87;;;39.90;;
5379;SDS011;2713;42.680;23.310;2022-11-15T04:02:48;65.47;;;38.57;;
5379;SDS011;2713;42.680;23.310;2022-11-15T04:05:33;63.73;;;37.80;;
5379;SDS011;2713;42.680;23.310;2022-11-15T04:08:19;77.47;;;40.60;;
5379;SDS011;2713;42.680;23.310;2022-11-15T04:11:04;71.73;;;39.43;;
5379;SDS011;2713;42.680;23.310;2022-11-15T04:13:51;75.50;;;38.60;;
5379;SDS011;2713;42.680;23.310;2022-11-15T04:16:36;72.00;;;38.40;;
5379;SDS011;2713;42.680;23.310;2022-11-15T04:19:22;73.70;;;40.77;;
5379;SDS011;2713;42.680;23.310;2022-11-15T04:22:42;72.77;;;39.90;;
5379;SDS011;2713;42.680;23.310;2022-11-15T04:25:45;79.30;;;40.77;;
5379;SDS011;2713;42.680;23.310;2022-11-15T04:28:34;83.23;;;40.70;;
5379;SDS011;2713;42.680;23.310;2022-11-15T04:31:40;82.60;;;41.53;;
5379;SDS011;2713;42.680;23.310;2022-11-15T04:34:26;84.97;;;41.40;;
5379;SDS011;2713;42.680;23.310;2022-11-15T04:37:11;75.87;;;40.73;;
5379;SDS011;2713;42.680;23.310;2022-11-15T04:39:56;80.90;;;39.50;;
5379;SDS011;2713;42.680;23.310;2022-11-15T04:42:42;81.90;;;40.53;;
5379;SDS011;2713;42.680;23.310;2022-11-15T04:45:28;78.70;;;40.07;;
5379;SDS011;2713;42.680;23.310;2022-11-15T04:48:15;80.97;;;39.03;;
5379;SDS011;2713;42.680;23.310;2022-11-15T04:51:01;77.60;;;39.73;;
5379;SDS011;2713;42.680;23.310;2022-11-15T04:53:46;85.20;;;40.90;;
5379;SDS011;2713;42.680;23.310;2022-11-15T04:56:32;75.43;;;39.33;;
5379;SDS011;2713;42.680;23.310;2022-11-15T04:59:17;90.77;;;41.70;;
5379;SDS011;2713;42.680;23.310;2022-11-15T05:02:02;91.37;;;39.27;;
5379;SDS011;2713;42.680;23.310;2022-11-15T05:04:49;88.67;;;38.47;;
5379;SDS011;2713;42.680;23.310;2022-11-15T05:07:33;88.40;;;41.03;;
5379;SDS011;2713;42.680;23.310;2022-11-15T05:10:19;86.60;;;39.87;;
5379;SDS011;2713;42.680;23.310;2022-11-15T05:13:04;86.03;;;40.43;;
5379;SDS011;2713;42.680;23.310;2022-11-15T05:15:50;86.40;;;39.97;;
5379;SDS011;2713;42.680;23.310;2022-11-15T05:18:35;89.97;;;39.30;;
5379;SDS011;2713;42.680;23.310;2022-11-15T05:21:25;77.50;;;38.70;;
5379;SDS011;2713;42.680;23.310;2022-11-15T05:24:10;98.50;;;42.10;;
5379;SDS011;2713;42.680;23.310;2022-11-15T05:26:56;95.10;;;41.20;;
5379;SDS011;2713;42.680;23.310;2022-11-15T05:29:41;94.00;;;41.20;;
5379;SDS011;2713;42.680;23.310;2022-11-15T05:32:27;91.87;;;40.87;;
5379;SDS011;2713;42.680;23.310;2022-11-15T05:35:13;86.33;;;41.40;;
5379;SDS011;2713;42.680;23.310;2022-11-15T05:38:04;88.23;;;40.30;;
5379;SDS011;2713;42.680;23.310;2022-11-15T05:40:50;88.07;;;39.57;;
5379;SDS011;2713;42.680;23.310;2022-11-15T05:43:36;86.10;;;41.97;;
5379;SDS011;2713;42.680;23.310;2022-11-15T05:46:23;82.30;;;38.83;;
5379;SDS011;2713;42.680;23.310;2022-11-15T05:49:09;63.70;;;32.63;;
5379;SDS011;2713;42.680;23.310;2022-11-15T05:51:58;70.17;;;34.17;;
5379;SDS011;2713;42.680;23.310;2022-11-15T05:54:45;63.80;;;31.30;;
5379;SDS011;2713;42.680;23.310;2022-11-15T05:57:30;44.50;;;26.40;;
5379;SDS011;2713;42.680;23.310;2022-11-15T06:00:16;45.23;;;27.57;;
5379;SDS011;2713;42.680;23.310;2022-11-15T06:03:01;47.63;;;23.87;;
5379;SDS011;2713;42.680;23.310;2022-11-15T06:05:46;48.60;;;24.73;;
5379;SDS011;2713;42.680;23.310;2022-11-15T06:08:32;45.50;;;24.03;;
5379;SDS011;2713;42.680;23.310;2022-11-15T06:11:18;46.60;;;24.40;;
5379;SDS011;2713;42.680;23.310;2022-11-15T06:14:04;44.30;;;22.97;;
5379;SDS011;2713;42.680;23.310;2022-11-15T06:16:49;43.80;;;23.63;;
5379;SDS011;2713;42.680;23.310;2022-11-15T06:19:35;45.87;;;23.67;;
5379;SDS011;2713;42.680;23.310;2022-11-15T06:22:20;49.63;;;26.30;;
5379;SDS011;2713;42.680;23.310;2022-11-15T06:25:06;53.63;;;26.03;;
5379;SDS011;2713;42.680;23.310;2022-11-15T06:27:53;56.30;;;27.10;;
5379;SDS011;2713;42.680;23.310;2022-11-15T06:30:39;59.70;;;29.53;;
5379;SDS011;2713;42.680;23.310;2022-11-15T06:33:24;63.60;;;28.80;;
5379;SDS011;2713;42.680;23.310;2022-11-15T06:36:10;63.77;;;32.10;;
5379;SDS011;2713;42.680;23.310;2022-11-15T06:38:58;66.30;;;31.10;;
5379;SDS011;2713;42.680;23.310;2022-11-15T06:41:44;65.47;;;33.27;;
5379;SDS011;2713;42.680;23.310;2022-11-15T06:44:30;67.83;;;31.30;;
5379;SDS011;2713;42.680;23.310;2022-11-15T06:47:15;59.00;;;30.77;;
5379;SDS011;2713;42.680;23.310;2022-11-15T06:50:01;66.70;;;30.30;;
5379;SDS011;2713;42.680;23.310;2022-11-15T06:52:46;59.60;;;29.27;;
5379;SDS011;2713;42.680;23.310;2022-11-15T06:55:32;64.20;;;31.10;;
5379;SDS011;2713;42.680;23.310;2022-11-15T06:58:17;55.10;;;28.80;;
5379;SDS011;2713;42.680;23.310;2022-11-15T07:01:04;61.33;;;29.60;;
5379;SDS011;2713;42.680;23.310;2022-11-15T07:03:51;61.53;;;30.07;;
5379;SDS011;2713;42.680;23.310;2022-11-15T07:06:36;64.90;;;29.83;;
5379;SDS011;2713;42.680;23.310;2022-11-15T07:09:21;64.33;;;30.70;;
5379;SDS011;2713;42.680;23.310;2022-11-15T07:12:07;58.83;;;31.00;;
5379;SDS011;2713;42.680;23.310;2022-11-15T07:14:52;54.47;;;30.07;;
5379;SDS011;2713;42.680;23.310;2022-11-15T07:17:39;64.00;;;29.07;;
5379;SDS011;2713;42.680;23.310;2022-11-15T07:20:24;53.93;;;28.73;;
5379;SDS011;2713;42.680;23.310;2022-11-15T07:23:09;56.63;;;29.40;;
5379;SDS011;2713;42.680;23.310;2022-11-15T07:25:56;59.60;;;29.63;;
5379;SDS011;2713;42.680;23.310;2022-11-15T07:28:41;50.03;;;27.23;;
5379;SDS011;2713;42.680;23.310;2022-11-15T07:31:27;50.23;;;26.60;;
5379;SDS011;2713;42.680;23.310;2022-11-15T07:34:13;54.47;;;27.77;;
5379;SDS011;2713;42.680;23.310;2022-11-15T07:36:59;56.40;;;27.53;;
5379;SDS011;2713;42.680;23.310;2022-11-15T07:39:44;59.70;;;28.90;;
5379;SDS011;2713;42.680;23.310;2022-11-15T07:42:30;61.67;;;30.07;;
5379;SDS011;2713;42.680;23.310;2022-11-15T07:45:33;55.97;;;29.80;;
5379;SDS011;2713;42.680;23.310;2022-11-15T07:48:19;55.67;;;28.47;;
5379;SDS011;2713;42.680;23.310;2022-11-15T07:51:06;57.27;;;28.47;;
5379;SDS011;2713;42.680;23.310;2022-11-15T07:53:52;55.50;;;28.90;;
5379;SDS011;2713;42.680;23.310;2022-11-15T07:56:37;55.07;;;31.00;;
5379;SDS011;2713;42.680;23.310;2022-11-15T07:59:23;58.17;;;30.47;;
5379;SDS011;2713;42.680;23.310;2022-11-15T08:02:08;62.60;;;31.57;;
5379;SDS011;2713;42.680;23.310;2022-11-15T08:04:53;66.57;;;32.20;;
5379;SDS011;2713;42.680;23.310;2022-11-15T08:07:40;62.50;;;32.20;;
5379;SDS011;2713;42.680;23.310;2022-11-15T08:10:25;61.30;;;33.93;;
5379;SDS011;2713;42.680;23.310;2022-11-15T08:13:11;63.63;;;32.87;;
5379;SDS011;2713;42.680;23.310;2022-11-15T08:15:58;56.33;;;31.10;;
5379;SDS011;2713;42.680;23.310;2022-11-15T08:18:44;62.30;;;32.70;;
5379;SDS011;2713;42.680;23.310;2022-11-15T08:21:29;65.90;;;31.97;;
5379;SDS011;2713;42.680;23.310;2022-11-15T08:24:15;61.70;;;32.40;;
5379;SDS011;2713;42.680;23.310;2022-11-15T08:27:01;62.60;;;33.47;;
5379;SDS011;2713;42.680;23.310;2022-11-15T08:29:47;66.00;;;33.90;;
5379;SDS011;2713;42.680;23.310;2022-11-15T08:32:33;67.60;;;33.03;;
5379;SDS011;2713;42.680;23.310;2022-11-15T08:35:19;66.57;;;33.60;;
5379;SDS011;2713;42.680;23.310;2022-11-15T08:38:05;77.97;;;37.07;;
5379;SDS011;2713;42.680;23.310;2022-11-15T08:40:53;75.77;;;34.50;;
5379;SDS011;2713;42.680;23.310;2022-11-15T08:43:44;68.10;;;33.50;;
5379;SDS011;2713;42.680;23.310;2022-11-15T08:46:30;74.50;;;36.97;;
5379;SDS011;2713;42.680;23.310;2022-11-15T08:49:15;79.37;;;35.93;;
5379;SDS011;2713;42.680;23.310;2022-11-15T08:52:01;64.57;;;33.17;;
5379;SDS011;2713;42.680;23.310;2022-11-15T08:54:46;65.37;;;33.80;;
5379;SDS011;2713;42.680;23.310;2022-11-15T08:57:33;59.00;;;33.73;;
5379;SDS011;2713;42.680;23.310;2022-11-15T09:00:19;65.93;;;33.77;;
5379;SDS011;2713;42.680;23.310;2022-11-15T09:03:04;64.20;;;33.70;;
5379;SDS011;2713;42.680;23.310;2022-11-15T09:05:53;59.17;;;33.27;;
5379;SDS011;2713;42.680;23.310;2022-11-15T09:08:39;59.03;;;33.27;;
5379;SDS011;2713;42.680;23.310;2022-11-15T09:11:25;68.67;;;33.37;;
5379;SDS011;2713;42.680;23.310;2022-11-15T09:14:12;56.73;;;32.53;;
5379;SDS011;2713;42.680;23.310;2022-11-15T09:16:59;68.30;;;33.87;;
5379;SDS011;2713;42.680;23.310;2022-11-15T09:19:45;63.60;;;32.20;;
5379;SDS011;2713;42.680;23.310;2022-11-15T09:22:30;71.00;;;32.87;;
5379;SDS011;2713;42.680;23.310;2022-11-15T09:25:15;60.60;;;33.40;;
5379;SDS011;2713;42.680;23.310;2022-11-15T09:28:00;62.73;;;35.27;;
5379;SDS011;2713;42.680;23.310;2022-11-15T09:30:51;65.80;;;35.80;;
5379;SDS011;2713;42.680;23.310;2022-11-15T09:33:40;72.00;;;33.73;;
5379;SDS011;2713;42.680;23.310;2022-11-15T09:36:28;71.93;;;34.40;;
5379;SDS011;2713;42.680;23.310;2022-11-15T09:39:13;64.80;;;35.17;;
5379;SDS011;2713;42.680;23.310;2022-11-15T09:42:12;65.40;;;34.33;;
5379;SDS011;2713;42.680;23.310;2022-11-15T09:45:18;60.87;;;34.63;;
5379;SDS011;2713;42.680;23.310;2022-11-15T09:48:23;73.30;;;36.90;;
5379;SDS011;2713;42.680;23.310;2022-11-15T09:51:27;70.70;;;36.30;;
5379;SDS011;2713;42.680;23.310;2022-11-15T09:54:00;72.43;;;35.60;;
5379;SDS011;2713;42.680;23.310;2022-11-15T09:56:31;71.30;;;35.77;;
5379;SDS011;2713;42.680;23.310;2022-11-15T09:59:01;72.33;;;36.97;;
5379;SDS011;2713;42.680;23.310;2022-11-15T10:01:44;74.07;;;37.30;;
5379;SDS011;2713;42.680;23.310;2022-11-15T10:04:17;75.80;;;38.57;;
5379;SDS011;2713;42.680;23.310;2022-11-15T10:06:46;71.70;;;37.17;;
5379;SDS011;2713;42.680;23.310;2022-11-15T10:09:19;74.13;;;38.93;;
5379;SDS011;2713;42.680;23.310;2022-11-15T10:11:50;77.03;;;38.50;;
5379;SDS011;2713;42.680;23.310;2022-11-15T10:14:18;78.20;;;37.40;;
5379;SDS011;2713;42.680;23.310;2022-11-15T10:17:06;75.00;;;37.00;;
5379;SDS011;2713;42.680;23.310;2022-11-15T10:19:47;67.63;;;36.37;;
5379;SDS011;2713;42.680;23.310;2022-11-15T10:22:24;67.60;;;36.20;;
5379;SDS011;2713;42.680;23.310;2022-11-15T10:24:59;77.97;;;38.23;;
5379;SDS011;2713;42.680;23.310;2022-11-15T10:38:07;71.33;;;35.97;;
5379;SDS011;2713;42.680;23.310;2022-11-15T10:40:36;71.10;;;37.37;;
5379;SDS011;2713;42.680;23.310;2022-11-15T10:43:05;72.20;;;36.50;;
5379;SDS011;2713;42.680;23.310;2022-11-15T10:45:39;75.93;;;36.47;;
5379;SDS011;2713;42.680;23.310;2022-11-15T10:48:22;66.73;;;38.80;;
5379;SDS011;2713;42.680;23.310;2022-11-15T10:50:51;71.27;;;37.77;;
5379;SDS011;2713;42.680;23.310;2022-11-15T10:53:23;68.40;;;36.40;;
5379;SDS011;2713;42.680;23.310;2022-11-15T10:55:53;73.03;;;37.80;;
5379;SDS011;2713;42.680;23.310;2022-11-15T10:58:28;77.77;;;41.03;;
5379;SDS011;2713;42.680;23.310;2022-11-15T11:01:08;77.17;;;38.20;;
5379;SDS011;2713;42.680;23.310;2022-11-15T11:03:37;71.10;;;38.10;;
5379;SDS011;2713;42.680;23.310;2022-11-15T11:06:07;75.73;;;39.70;;
5379;SDS011;2713;42.680;23.310;2022-11-15T11:08:37;79.07;;;39.00;;
5379;SDS011;2713;42.680;23.310;2022-11-15T11:11:04;71.20;;;39.40;;
5379;SDS011;2713;42.680;23.310;2022-11-15T11:13:32;74.30;;;40.23;;
5379;SDS011;2713;42.680;23.310;2022-11-15T11:19:02;77.60;;;42.00;;
5379;SDS011;2713;42.680;23.310;2022-11-15T11:21:41;81.73;;;41.57;;
5379;SDS011;2713;42.680;23.310;2022-11-15T11:24:18;79.20;;;42.60;;
5379;SDS011;2713;42.680;23.310;2022-11-15T11:26:55;84.43;;;44.90;;
5379;SDS011;2713;42.680;23.310;2022-11-15T11:29:36;86.93;;;45.33;;
5379;SDS011;2713;42.680;23.310;2022-11-15T11:32:19;91.27;;;44.93;;
5379;SDS011;2713;42.680;23.310;2022-11-15T11:34:56;96.73;;;47.80;;
5379;SDS011;2713;42.680;23.310;2022-11-15T11:37:30;97.47;;;47.53;;
5379;SDS011;2713;42.680;23.310;2022-11-15T11:40:06;83.63;;;44.20;;
5379;SDS011;2713;42.680;23.310;2022-11-15T11:42:46;92.20;;;46.90;;
5379;SDS011;2713;42.680;23.310;2022-11-15T11:45:27;86.30;;;46.60;;
5379;SDS011;2713;42.680;23.310;2022-11-15T11:48:11;86.93;;;44.27;;
5379;SDS011;2713;42.680;23.310;2022-11-15T11:50:40;98.27;;;48.53;;
5379;SDS011;2713;42.680;23.310;2022-11-15T11:53:11;86.37;;;46.00;;
5379;SDS011;2713;42.680;23.310;2022-11-15T11:55:42;85.53;;;42.00;;
5379;SDS011;2713;42.680;23.310;2022-11-15T11:58:13;80.53;;;42.20;;
5379;SDS011;2713;42.680;23.310;2022-11-15T12:00:45;81.27;;;43.27;;
5379;SDS011;2713;42.680;23.310;2022-11-15T12:03:18;84.90;;;44.27;;
5379;SDS011;2713;42.680;23.310;2022-11-15T12:05:56;80.57;;;43.97;;
5379;SDS011;2713;42.680;23.310;2022-11-15T12:08:29;82.80;;;42.93;;
5379;SDS011;2713;42.680;23.310;2022-11-15T12:11:07;74.60;;;41.90;;
5379;SDS011;2713;42.680;23.310;2022-11-15T12:13:37;78.67;;;40.47;;
5379;SDS011;2713;42.680;23.310;2022-11-15T12:16:07;69.70;;;40.13;;
5379;SDS011;2713;42.680;23.310;2022-11-15T12:18:40;73.63;;;41.03;;
5379;SDS011;2713;42.680;23.310;2022-11-15T12:21:15;84.67;;;41.37;;
5379;SDS011;2713;42.680;23.310;2022-11-15T12:23:48;69.50;;;39.40;;
5379;SDS011;2713;42.680;23.310;2022-11-15T12:26:20;68.23;;;40.27;;
5379;SDS011;2713;42.680;23.310;2022-11-15T12:28:50;68.10;;;39.57;;
5379;SDS011;2713;42.680;23.310;2022-11-15T12:31:23;71.00;;;41.50;;
5379;SDS011;2713;42.680;23.310;2022-11-15T12:33:54;68.37;;;39.60;;
5379;SDS011;2713;42.680;23.310;2022-11-15T12:39:10;69.03;;;38.07;;
5379;SDS011;2713;42.680;23.310;2022-11-15T12:41:40;77.47;;;39.97;;
5379;SDS011;2713;42.680;23.310;2022-11-15T12:44:10;74.50;;;40.67;;
5379;SDS011;2713;42.680;23.310;2022-11-15T12:49:45;65.53;;;39.23;;
5379;SDS011;2713;42.680;23.310;2022-11-15T12:52:12;69.70;;;38.70;;
5379;SDS011;2713;42.680;23.310;2022-11-15T12:57:50;65.77;;;39.00;;
5379;SDS011;2713;42.680;23.310;2022-11-15T13:03:22;73.93;;;40.10;;
5379;SDS011;2713;42.680;23.310;2022-11-15T13:08:59;71.33;;;42.00;;
5379;SDS011;2713;42.680;23.310;2022-11-15T13:11:41;74.20;;;41.40;;
5379;SDS011;2713;42.680;23.310;2022-11-15T13:17:12;85.80;;;46.33;;
5379;SDS011;2713;42.680;23.310;2022-11-15T13:19:52;79.60;;;42.53;;
5379;SDS011;2713;42.680;23.310;2022-11-15T13:22:26;73.00;;;41.77;;
5379;SDS011;2713;42.680;23.310;2022-11-15T13:25:18;77.30;;;43.50;;
5379;SDS011;2713;42.680;23.310;2022-11-15T13:27:51;76.47;;;41.57;;
5379;SDS011;2713;42.680;23.310;2022-11-15T13:30:22;77.90;;;41.80;;
5379;SDS011;2713;42.680;23.310;2022-11-15T13:32:54;81.23;;;42.87;;
5379;SDS011;2713;42.680;23.310;2022-11-15T13:35:22;76.70;;;40.70;;
5379;SDS011;2713;42.680;23.310;2022-11-15T13:37:51;74.33;;;42.93;;
5379;SDS011;2713;42.680;23.310;2022-11-15T13:40:21;75.60;;;41.50;;
5379;SDS011;2713;42.680;23.310;2022-11-15T13:42:50;70.33;;;39.77;;
5379;SDS011;2713;42.680;23.310;2022-11-15T13:45:17;68.50;;;40.50;;
5379;SDS011;2713;42.680;23.310;2022-11-15T13:47:47;65.50;;;38.90;;
5379;SDS011;2713;42.680;23.310;2022-11-15T13:50:17;72.00;;;38.93;;
5379;SDS011;2713;42.680;23.310;2022-11-15T13:52:47;69.93;;;39.60;;
5379;SDS011;2713;42.680;23.310;2022-11-15T13:55:15;77.37;;;42.87;;
5379;SDS011;2713;42.680;23.310;2022-11-15T13:57:45;70.10;;;40.10;;
5379;SDS011;2713;42.680;23.310;2022-11-15T14:00:24;72.83;;;41.87;;
5379;SDS011;2713;42.680;23.310;2022-11-15T14:02:54;73.20;;;41.50;;
5379;SDS011;2713;42.680;23.310;2022-11-15T14:05:23;81.23;;;42.80;;
5379;SDS011;2713;42.680;23.310;2022-11-15T14:07:54;72.63;;;40.77;;
5379;SDS011;2713;42.680;23.310;2022-11-15T14:10:27;71.37;;;40.80;;
5379;SDS011;2713;42.680;23.310;2022-11-15T14:12:56;68.17;;;41.33;;
5379;SDS011;2713;42.680;23.310;2022-11-15T14:15:25;66.67;;;38.50;;
5379;SDS011;2713;42.680;23.310;2022-11-15T14:17:56;71.70;;;42.43;;
5379;SDS011;2713;42.680;23.310;2022-11-15T14:20:32;76.43;;;44.80;;
5379;SDS011;2713;42.680;23.310;2022-11-15T14:23:00;73.07;;;42.33;;
5379;SDS011;2713;42.680;23.310;2022-11-15T14:25:29;89.10;;;50.60;;
5379;SDS011;2713;42.680;23.310;2022-11-15T14:28:14;94.43;;;49.63;;
5379;SDS011;2713;42.680;23.310;2022-11-15T14:30:55;108.00;;;54.90;;
5379;SDS011;2713;42.680;23.310;2022-11-15T14:33:26;125.87;;;65.50;;
5379;SDS011;2713;42.680;23.310;2022-11-15T14:35:55;156.50;;;81.00;;
5379;SDS011;2713;42.680;23.310;2022-11-15T14:38:23;128.00;;;64.17;;
5379;SDS011;2713;42.680;23.310;2022-11-15T14:40:50;112.13;;;59.67;;
5379;SDS011;2713;42.680;23.310;2022-11-15T14:43:18;93.00;;;49.27;;
5379;SDS011;2713;42.680;23.310;2022-11-15T14:45:45;83.67;;;44.60;;
5379;SDS011;2713;42.680;23.310;2022-11-15T14:48:12;73.87;;;43.40;;
5379;SDS011;2713;42.680;23.310;2022-11-15T14:50:41;76.67;;;46.00;;
5379;SDS011;2713;42.680;23.310;2022-11-15T14:53:10;80.37;;;44.87;;
5379;SDS011;2713;42.680;23.310;2022-11-15T14:55:38;84.83;;;47.30;;
5379;SDS011;2713;42.680;23.310;2022-11-15T14:58:06;74.47;;;43.67;;
5379;SDS011;2713;42.680;23.310;2022-11-15T15:00:34;78.13;;;44.50;;
5379;SDS011;2713;42.680;23.310;2022-11-15T15:03:01;79.07;;;45.13;;
5379;SDS011;2713;42.680;23.310;2022-11-15T15:05:30;79.83;;;44.10;;
5379;SDS011;2713;42.680;23.310;2022-11-15T15:08:00;75.57;;;43.67;;
5379;SDS011;2713;42.680;23.310;2022-11-15T15:10:29;72.73;;;40.70;;
5379;SDS011;2713;42.680;23.310;2022-11-15T15:12:58;72.97;;;42.70;;
5379;SDS011;2713;42.680;23.310;2022-11-15T15:15:26;89.87;;;49.63;;
5379;SDS011;2713;42.680;23.310;2022-11-15T15:17:58;96.53;;;51.30;;
5379;SDS011;2713;42.680;23.310;2022-11-15T15:20:25;89.33;;;44.13;;
5379;SDS011;2713;42.680;23.310;2022-11-15T15:22:52;73.13;;;42.70;;
5379;SDS011;2713;42.680;23.310;2022-11-15T15:25:24;71.33;;;41.00;;
5379;SDS011;2713;42.680;23.310;2022-11-15T15:27:54;77.43;;;43.90;;
5379;SDS011;2713;42.680;23.310;2022-11-15T15:30:22;81.83;;;45.37;;
5379;SDS011;2713;42.680;23.310;2022-11-15T15:32:48;72.07;;;43.00;;
5379;SDS011;2713;42.680;23.310;2022-11-15T15:35:16;80.00;;;42.23;;
5379;SDS011;2713;42.680;23.310;2022-11-15T15:37:47;73.97;;;40.30;;
5379;SDS011;2713;42.680;23.310;2022-11-15T15:40:15;74.00;;;42.37;;
5379;SDS011;2713;42.680;23.310;2022-11-15T15:42:45;85.97;;;43.57;;
5379;SDS011;2713;42.680;23.310;2022-11-15T15:45:12;79.13;;;45.43;;
5379;SDS011;2713;42.680;23.310;2022-11-15T15:47:40;84.10;;;44.13;;
5379;SDS011;2713;42.680;23.310;2022-11-15T15:50:16;79.00;;;42.50;;
5379;SDS011;2713;42.680;23.310;2022-11-15T15:52:46;77.70;;;42.30;;
5379;SDS011;2713;42.680;23.310;2022-11-15T15:55:13;78.97;;;42.80;;
5379;SDS011;2713;42.680;23.310;2022-11-15T15:57:40;74.17;;;42.47;;
5379;SDS011;2713;42.680;23.310;2022-11-15T16:00:10;80.07;;;42.50;;
5379;SDS011;2713;42.680;23.310;2022-11-15T16:02:37;80.60;;;43.17;;
5379;SDS011;2713;42.680;23.310;2022-11-15T16:05:04;84.57;;;42.67;;
5379;SDS011;2713;42.680;23.310;2022-11-15T16:07:32;72.03;;;41.60;;
5379;SDS011;2713;42.680;23.310;2022-11-15T16:09:59;73.40;;;42.33;;
5379;SDS011;2713;42.680;23.310;2022-11-15T16:12:29;76.57;;;43.77;;
5379;SDS011;2713;42.680;23.310;2022-11-15T16:14:57;77.67;;;43.53;;
5379;SDS011;2713;42.680;23.310;2022-11-15T16:17:28;76.30;;;40.30;;
5379;SDS011;2713;42.680;23.310;2022-11-15T16:19:58;75.67;;;41.23;;
5379;SDS011;2713;42.680;23.310;2022-11-15T16:22:25;64.80;;;39.60;;
5379;SDS011;2713;42.680;23.310;2022-11-15T16:24:54;75.07;;;41.47;;
5379;SDS011;2713;42.680;23.310;2022-11-15T16:27:21;76.37;;;40.40;;
5379;SDS011;2713;42.680;23.310;2022-11-15T16:29:49;67.73;;;38.60;;